Huvudsida
METAR-TAF:

METAR-TAF

Flygplatser :

Khartoum, Sudan

latitud: 15-36N, longitud: 032-33E, höjd: 382 m

Aktuellt väderrapport

Denna rapport gjordes för 48 minuter sedan, klockan 15:00 UTC
Vind 12 kt från syd/sydväst
Temperatur 38°C
Fuktighet 23%
Tryck 1008 hPa
Sikt: 2000 m
högt damm drev

METAR: HSSS 221500Z 20012KT 2000 BLDU /// 38/13 Q1008 TEMPO 1500 BLDU

Tid: 18:48 (15:48 UTC)

Väderprognos

Denna rapport gjordes för 10 timmar och 48 minuter sedan, klockan 05:00 UTC
Prognos gäller från 22 kl. 06 UTC till 23 kl. 12 UTC
Vind 12 kt från syd i byarna ända upp till 22 kt
Sikt 10 km eller mer
Inga moln under 1 500 m eller inga cumulonimbus
Temporärt
från 22 kl. 06 UTC till 22 kl. 09 UTC
Sikt: 6000 m

TAF: HSSS 220500Z 2206/2312 18012G22KT CAVOK TEMPO 2206/2209 6000

Aktuella väderrapporter och prognoser från 4000 flygplatser (METAR- och TAF-rapporter).

De tillgängliga stationerna syns som gula och röda prickar på kartan.

För musen över prickarna för att se namnen på stationerna.

Klicka sedan för att få väderrapporter och prognoser.

För att ändra kartan: Klicka på de gröna knapparna med ett svart kors på för att zooma in; den gröna knappen med ett streck på för att zooma ut; eller på de gröna pilarna för angränsande kartor.


METAR-TAF: